Strona główna
METAR-TAF:

METAR-TAF

Lotnisko :

Rio Branco, Acre, Brazylia

Szerokość geograficzna: 10-00S, Długość geograficzna: 067-48W, wysokość: 142 m

Aktualna obserwacja pogody

Raport powstał 55 minut temu, godzina 22:00 UTC
Wiatr 2 kt z kierunków zmiennych
Temperatura 29°C
Wilgotność 70%
Ciśnienie 1011 hPa
Widzialność 10 km lub więcej
Brak chmur poniżej 1500 m i brak chmur cumulonimbus

METAR: SBRB 302200Z VRB02KT CAVOK 29/23 Q1011

czas: 17:55 (22:55 UTC)

Prognoza

Raport powstał 7 godziny i 55 minut temu, godzina 15:00 UTC
Prognoza ważna od 30 godzina 18 UTC do 31 godzina 06 UTC
Wiatr 5 kt od północny zachód
Widzialność 10 km lub więcej
Rozproszone chmury na wysokości 3500 ft
Stopniowe zmiany
od 30 godzina 21 UTC do 30 godzina 23 UTC
Wiatr kt od północ
Widzialność 10 km lub więcej
Brak chmur poniżej 1500 m i brak chmur cumulonimbus

TAF: SBRB 301500Z 3018/3106 31005KT 9999 SCT035 TX30/3018Z TN21/3106Z BECMG 3021/3023 00000KT CAVOK RMK PEB

Obserwacja i prognoza pogody dla ponad 4000 lotnisk (raport METAR i TAF).

Dostępne stacje oznaczono żółtymi i czerwonymi punktami na mapie.

Najedź kursorem aby zobaczyć nazwę stacji.

Kliknij aby zobaczyć obserwacje i prognozy pogody.

Aby zmienić mapę: kliknij na zielony przycisk z czarnym krzyżykiem, aby powiększyć; na zielony przycisk z myślnikiem, aby pomniejszyć; na zielone strzałki, aby przejść do map sąsiednich.


METAR-TAF: